createdAt,value
2017-03-03T00:00:14.070Z,4.76
2017-03-03T00:01:22.465Z,4.62
2017-03-03T00:02:22.481Z,4.73
2017-03-03T00:03:17.785Z,4.77
2017-03-03T00:04:22.793Z,4.68
2017-03-03T00:06:18.120Z,4.84
2017-03-03T00:07:18.117Z,4.71
2017-03-03T00:08:22.003Z,4.92
2017-03-03T00:09:22.311Z,4.85
2017-03-03T00:10:19.698Z,4.87
2017-03-03T00:11:15.652Z,4.87
2017-03-03T00:12:12.466Z,4.62
2017-03-03T00:13:17.047Z,4.68
2017-03-03T00:14:17.024Z,4.50
2017-03-03T00:15:17.239Z,4.61
2017-03-03T00:16:17.203Z,4.48
2017-03-03T00:17:26.318Z,4.41
2017-03-03T00:18:17.250Z,4.55
2017-03-03T00:19:14.247Z,4.42
2017-03-03T00:20:14.249Z,4.25
2017-03-03T00:21:17.588Z,4.27
2017-03-03T00:22:14.472Z,4.30
2017-03-03T00:23:21.664Z,4.44
2017-03-03T00:24:17.563Z,4.42
2017-03-03T00:25:17.365Z,4.42
2017-03-03T00:26:23.495Z,4.45
2017-03-03T00:27:18.175Z,4.52
2017-03-03T00:28:14.572Z,4.33
2017-03-03T00:29:16.773Z,4.47
2017-03-03T00:30:17.583Z,4.43
2017-03-03T00:31:16.755Z,4.34
2017-03-03T00:32:20.851Z,4.46
2017-03-03T00:33:16.848Z,4.36
2017-03-03T00:34:21.852Z,4.52
2017-03-03T00:35:11.768Z,4.46
2017-03-03T00:36:22.670Z,4.33
2017-03-03T00:37:18.169Z,4.46
2017-03-03T00:38:26.796Z,4.42
2017-03-03T00:39:16.531Z,4.22
2017-03-03T00:40:12.107Z,4.36
2017-03-03T00:41:22.745Z,4.27
2017-03-03T00:42:20.598Z,4.49
2017-03-03T00:43:16.964Z,4.41
2017-03-03T00:44:17.559Z,4.45
2017-03-03T00:45:09.614Z,4.49
2017-03-03T00:46:21.566Z,4.40
2017-03-03T00:47:16.756Z,4.41
2017-03-03T00:48:20.352Z,4.24
2017-03-03T00:49:26.152Z,4.38
2017-03-03T00:50:26.759Z,4.35
2017-03-03T00:51:20.884Z,4.40
2017-03-03T00:52:17.076Z,4.29
2017-03-03T00:53:16.748Z,4.18
2017-03-03T00:54:18.570Z,4.17
2017-03-03T00:55:21.286Z,4.23
2017-03-03T00:56:20.706Z,4.25
2017-03-03T00:57:20.773Z,4.47
2017-03-03T00:58:20.698Z,4.51
2017-03-03T00:59:11.858Z,4.46
2017-03-03T01:00:14.169Z,4.42
2017-03-03T01:01:11.343Z,4.48
2017-03-03T01:02:17.581Z,4.32
2017-03-03T01:03:16.760Z,4.24
2017-03-03T01:04:27.175Z,4.25
2017-03-03T01:05:17.589Z,4.49
2017-03-03T01:06:17.595Z,4.42
2017-03-03T01:07:12.748Z,4.32
2017-03-03T01:08:26.375Z,4.32
2017-03-03T01:09:22.543Z,4.20
2017-03-03T01:10:21.669Z,4.37
2017-03-03T01:11:18.733Z,4.22
2017-03-03T01:12:17.127Z,4.08
2017-03-03T01:13:17.325Z,4.28
2017-03-03T01:14:11.836Z,4.12
2017-03-03T01:15:18.552Z,4.34
2017-03-03T01:16:21.800Z,4.16
2017-03-03T01:17:20.994Z,4.12
2017-03-03T01:18:22.572Z,4.27
2017-03-03T01:19:15.389Z,4.38
2017-03-03T01:20:28.395Z,4.38
2017-03-03T01:21:12.667Z,4.35
2017-03-03T01:22:21.714Z,4.38
2017-03-03T01:23:17.402Z,4.30
2017-03-03T01:24:16.721Z,4.24
2017-03-03T01:25:11.807Z,4.15
2017-03-03T01:26:16.714Z,4.11
2017-03-03T01:27:25.942Z,4.10
2017-03-03T01:28:20.868Z,4.02
2017-03-03T01:29:20.575Z,4.30
2017-03-03T01:30:20.704Z,4.06
2017-03-03T01:31:16.826Z,4.30
2017-03-03T01:32:16.729Z,4.05
2017-03-03T01:33:25.850Z,3.92
2017-03-03T01:34:16.720Z,4.21
2017-03-03T01:35:20.786Z,4.19
2017-03-03T01:36:23.107Z,4.02
2017-03-03T01:37:21.648Z,4.25
2017-03-03T01:38:26.398Z,3.92
2017-03-03T01:39:16.720Z,4.01
2017-03-03T01:40:22.217Z,3.88
2017-03-03T01:41:22.375Z,3.77
2017-03-03T01:42:27.536Z,3.86
2017-03-03T01:43:21.648Z,4.16
2017-03-03T01:44:22.070Z,4.15
2017-03-03T01:45:26.056Z,4.10
2017-03-03T01:46:26.933Z,4.22
2017-03-03T01:47:17.143Z,3.92
2017-03-03T01:48:22.641Z,3.82
2017-03-03T01:49:17.123Z,3.94
2017-03-03T01:50:25.941Z,4.14
2017-03-03T01:51:22.174Z,3.78
2017-03-03T01:52:16.627Z,3.79
2017-03-03T01:53:11.797Z,3.75
2017-03-03T01:54:21.284Z,3.76
2017-03-03T01:55:21.631Z,3.88
2017-03-03T01:56:16.638Z,4.13
2017-03-03T01:57:21.180Z,4.03
2017-03-03T01:58:16.459Z,3.83
2017-03-03T01:59:20.584Z,3.65
2017-03-03T02:00:17.650Z,3.58
2017-03-03T02:01:21.741Z,3.77
2017-03-03T02:02:16.981Z,3.74
2017-03-03T02:03:21.662Z,3.90
2017-03-03T02:04:14.435Z,3.86
2017-03-03T02:05:14.533Z,3.74
2017-03-03T02:06:22.452Z,3.91
2017-03-03T02:07:22.936Z,3.94
2017-03-03T02:08:12.702Z,3.97
2017-03-03T02:09:17.057Z,3.86
2017-03-03T02:10:21.613Z,3.72
2017-03-03T02:11:17.737Z,3.67
2017-03-03T02:12:20.612Z,3.76
2017-03-03T02:13:18.053Z,3.79
2017-03-03T02:14:22.180Z,3.70
2017-03-03T02:15:21.325Z,3.94
2017-03-03T02:16:21.006Z,3.89
2017-03-03T02:17:14.059Z,3.75
2017-03-03T02:18:25.554Z,3.77
2017-03-03T02:19:19.705Z,3.89
2017-03-03T02:20:13.545Z,3.84
2017-03-03T02:21:22.410Z,3.89
2017-03-03T02:22:22.441Z,3.92
2017-03-03T02:23:22.239Z,3.59
2017-03-03T02:24:14.446Z,3.77
2017-03-03T02:25:26.552Z,3.75
2017-03-03T02:26:16.771Z,3.85
2017-03-03T02:27:15.132Z,3.77
2017-03-03T02:28:20.730Z,3.88
2017-03-03T02:29:16.615Z,3.85
2017-03-03T02:30:25.076Z,3.71
2017-03-03T02:31:23.078Z,3.73
2017-03-03T02:32:22.219Z,3.88
2017-03-03T02:33:13.841Z,3.70
2017-03-03T02:34:17.111Z,3.81
2017-03-03T02:35:20.742Z,3.80
2017-03-03T02:36:19.410Z,3.86
2017-03-03T02:37:22.683Z,3.59
2017-03-03T02:38:17.199Z,3.62
2017-03-03T02:39:22.329Z,3.62
2017-03-03T02:40:13.418Z,3.82
2017-03-03T02:41:25.697Z,3.83
2017-03-03T02:42:17.022Z,3.84
2017-03-03T02:43:15.352Z,3.69
2017-03-03T02:44:18.034Z,3.85
2017-03-03T02:45:20.610Z,3.74
2017-03-03T02:46:09.591Z,3.87
2017-03-03T02:47:23.108Z,3.89
2017-03-03T02:48:25.796Z,3.79
2017-03-03T02:49:22.503Z,3.82
2017-03-03T02:50:11.798Z,3.84
2017-03-03T02:51:22.437Z,3.72
2017-03-03T02:52:20.676Z,3.87
2017-03-03T02:53:36.411Z,3.75
2017-03-03T02:54:17.046Z,3.88
2017-03-03T02:55:17.200Z,3.71
2017-03-03T02:56:20.791Z,3.84
2017-03-03T02:57:26.504Z,3.75
2017-03-03T02:58:14.404Z,3.74
2017-03-03T02:59:11.606Z,3.80
2017-03-03T03:00:25.714Z,3.66
2017-03-03T03:01:17.042Z,3.71
2017-03-03T03:02:22.221Z,3.66
2017-03-03T03:03:22.036Z,3.70
2017-03-03T03:04:16.552Z,4.00
2017-03-03T03:05:21.733Z,4.02
2017-03-03T03:06:16.932Z,3.83
2017-03-03T03:07:16.839Z,3.78
2017-03-03T03:08:12.683Z,3.76
2017-03-03T03:09:21.666Z,3.81
2017-03-03T03:10:20.774Z,3.88
2017-03-03T03:11:11.612Z,4.04
2017-03-03T03:12:16.572Z,3.74
2017-03-03T03:13:21.714Z,3.86
2017-03-03T03:14:17.682Z,3.91
2017-03-03T03:15:16.587Z,3.93
2017-03-03T03:16:19.667Z,3.80
2017-03-03T03:17:22.047Z,3.73
2017-03-03T03:18:13.831Z,3.80
2017-03-03T03:19:13.727Z,3.81
2017-03-03T03:20:15.057Z,3.59
2017-03-03T03:21:15.062Z,3.66
2017-03-03T03:22:21.573Z,3.78
2017-03-03T03:23:16.752Z,3.69
2017-03-03T03:24:21.741Z,3.76
2017-03-03T03:25:21.347Z,3.57
2017-03-03T03:26:22.971Z,3.63
2017-03-03T03:27:17.386Z,3.67
2017-03-03T03:28:20.753Z,3.96
2017-03-03T03:29:19.999Z,3.79
2017-03-03T03:30:17.187Z,3.67
2017-03-03T03:31:17.633Z,3.63
2017-03-03T03:32:11.644Z,3.63
2017-03-03T03:33:12.531Z,3.58
2017-03-03T03:34:21.346Z,3.47
2017-03-03T03:35:17.383Z,3.50
2017-03-03T03:36:17.348Z,3.84
2017-03-03T03:37:23.094Z,3.78
2017-03-03T03:38:13.191Z,3.83
2017-03-03T03:39:19.641Z,3.64
2017-03-03T03:40:16.690Z,3.64
2017-03-03T03:41:13.175Z,3.71
2017-03-03T03:42:18.023Z,3.57
2017-03-03T03:43:21.804Z,3.49
2017-03-03T03:44:20.888Z,3.61
2017-03-03T03:45:21.831Z,3.63
2017-03-03T03:46:22.969Z,3.38
2017-03-03T03:47:26.583Z,3.48
2017-03-03T03:48:18.155Z,3.59
2017-03-03T03:49:21.070Z,3.48
2017-03-03T03:50:17.428Z,3.58
2017-03-03T03:51:23.139Z,3.52
2017-03-03T03:52:18.184Z,3.52
2017-03-03T03:53:21.713Z,3.44
2017-03-03T03:54:21.801Z,3.44
2017-03-03T03:55:16.980Z,3.53
2017-03-03T03:56:21.773Z,3.43
2017-03-03T03:57:21.917Z,3.34
2017-03-03T03:58:27.116Z,3.36
2017-03-03T03:59:20.333Z,3.37
2017-03-03T04:00:16.999Z,3.27
2017-03-03T04:01:14.439Z,3.34
2017-03-03T04:02:17.684Z,3.18
2017-03-03T04:03:18.965Z,3.41
2017-03-03T04:04:12.421Z,3.33
2017-03-03T04:05:16.698Z,3.47
2017-03-03T04:06:22.256Z,3.51
2017-03-03T04:07:12.320Z,3.44
2017-03-03T04:08:22.092Z,3.16
2017-03-03T04:09:18.301Z,3.33
2017-03-03T04:10:17.078Z,3.22
2017-03-03T04:11:17.133Z,3.32
2017-03-03T04:12:14.386Z,3.41
2017-03-03T04:13:18.730Z,3.40
2017-03-03T04:14:25.365Z,3.32
2017-03-03T04:15:17.976Z,3.47
2017-03-03T04:16:11.955Z,3.56
2017-03-03T04:17:21.782Z,3.31
2017-03-03T04:18:21.419Z,3.25
2017-03-03T04:19:21.811Z,3.53
2017-03-03T04:20:17.629Z,3.28
2017-03-03T04:21:14.030Z,3.38
2017-03-03T04:22:18.093Z,3.42
2017-03-03T04:23:22.162Z,3.55
2017-03-03T04:24:24.371Z,3.39
2017-03-03T04:25:21.837Z,3.51
2017-03-03T04:26:22.977Z,3.42
2017-03-03T04:27:14.468Z,3.45
2017-03-03T04:28:22.110Z,3.29
2017-03-03T04:29:27.280Z,3.29
2017-03-03T04:30:17.248Z,3.24
2017-03-03T04:31:16.489Z,3.28
2017-03-03T04:32:17.456Z,3.34
2017-03-03T04:33:16.515Z,3.36
2017-03-03T04:34:17.375Z,3.41
2017-03-03T04:35:22.073Z,3.34
2017-03-03T04:36:21.887Z,3.35
2017-03-03T04:37:20.066Z,3.25
2017-03-03T04:38:14.716Z,3.20
2017-03-03T04:39:17.890Z,3.41
2017-03-03T04:40:12.393Z,3.21
2017-03-03T04:41:17.989Z,3.22
2017-03-03T04:42:26.054Z,3.12
2017-03-03T04:43:17.724Z,3.02
2017-03-03T04:44:17.066Z,3.23
2017-03-03T04:45:26.085Z,3.35
2017-03-03T04:46:17.246Z,3.18
2017-03-03T04:47:22.394Z,3.11
2017-03-03T04:48:20.564Z,3.10
2017-03-03T04:49:16.860Z,3.03
2017-03-03T04:50:20.948Z,3.23
2017-03-03T04:51:13.733Z,3.21
2017-03-03T04:52:14.936Z,3.36
2017-03-03T04:53:20.615Z,3.39
2017-03-03T04:54:20.596Z,3.36
2017-03-03T04:55:21.718Z,3.24
2017-03-03T04:56:17.403Z,3.41
2017-03-03T04:57:13.503Z,3.36
2017-03-03T04:58:25.390Z,3.27
2017-03-03T04:59:18.363Z,3.17
2017-03-03T05:00:11.147Z,3.29
2017-03-03T05:01:26.692Z,3.39
2017-03-03T05:02:11.549Z,3.25
2017-03-03T05:03:22.678Z,3.01
2017-03-03T05:04:20.317Z,3.17
2017-03-03T05:05:17.283Z,3.10
2017-03-03T05:06:23.050Z,3.32
2017-03-03T05:07:21.163Z,3.24
2017-03-03T05:08:19.418Z,3.03
2017-03-03T05:09:26.093Z,3.13
2017-03-03T05:10:21.107Z,3.41
2017-03-03T05:11:21.278Z,3.38
2017-03-03T05:12:22.867Z,3.15
2017-03-03T05:13:25.537Z,2.96
2017-03-03T05:14:21.742Z,3.14
2017-03-03T05:15:17.125Z,3.05
2017-03-03T05:16:15.419Z,3.15
2017-03-03T05:17:22.660Z,3.03
2017-03-03T05:18:14.262Z,3.36
2017-03-03T05:19:22.162Z,3.26
2017-03-03T05:20:21.239Z,3.04
2017-03-03T05:21:21.547Z,2.96
2017-03-03T05:22:12.631Z,3.14
2017-03-03T05:23:12.380Z,3.04
2017-03-03T05:24:12.229Z,3.15
2017-03-03T05:27:17.667Z,3.08
2017-03-03T05:28:17.879Z,3.09
2017-03-03T05:29:18.452Z,3.16
2017-03-03T05:30:18.960Z,3.20
2017-03-03T05:31:21.176Z,3.23
2017-03-03T05:32:21.510Z,3.24
2017-03-03T05:33:21.055Z,3.30
2017-03-03T05:34:21.312Z,3.19
2017-03-03T05:35:26.434Z,3.20
2017-03-03T05:36:13.959Z,3.17
2017-03-03T05:37:22.031Z,3.19
2017-03-03T05:38:16.776Z,3.09
2017-03-03T05:39:16.917Z,3.08
2017-03-03T05:40:21.224Z,3.27
2017-03-03T05:41:18.255Z,3.09
2017-03-03T05:42:16.937Z,3.18
2017-03-03T05:43:11.704Z,2.99
2017-03-03T05:44:20.801Z,2.97
2017-03-03T05:45:17.524Z,2.96
2017-03-03T05:46:20.626Z,3.17
2017-03-03T05:47:20.738Z,3.08
2017-03-03T05:48:20.697Z,3.06
2017-03-03T05:49:21.219Z,2.98
2017-03-03T05:50:09.694Z,3.06
2017-03-03T05:51:22.438Z,3.06
2017-03-03T05:52:13.595Z,2.96
2017-03-03T05:54:13.858Z,2.93
2017-03-03T05:55:27.328Z,3.06
2017-03-03T05:56:21.979Z,2.97
2017-03-03T05:57:09.991Z,2.90
2017-03-03T05:58:21.171Z,2.91
2017-03-03T05:59:20.730Z,3.03
2017-03-03T06:00:20.839Z,3.06
2017-03-03T06:01:25.798Z,3.16
2017-03-03T06:02:21.611Z,3.10
2017-03-03T06:03:20.758Z,3.04
2017-03-03T06:04:14.172Z,3.15
2017-03-03T06:05:15.044Z,3.12
2017-03-03T06:06:21.087Z,3.10
2017-03-03T06:07:26.176Z,3.02
2017-03-03T06:08:20.296Z,3.13
2017-03-03T06:09:16.706Z,3.17
2017-03-03T06:10:22.039Z,2.95
2017-03-03T06:11:22.147Z,3.16
2017-03-03T06:12:23.393Z,3.13
2017-03-03T06:13:21.614Z,3.44
2017-03-03T06:14:18.858Z,3.30
2017-03-03T06:15:20.940Z,3.27
2017-03-03T06:16:18.072Z,3.36
2017-03-03T06:17:21.225Z,3.22
2017-03-03T06:18:26.225Z,3.44
2017-03-03T06:19:21.192Z,3.19
2017-03-03T06:20:12.269Z,3.13
2017-03-03T06:21:20.594Z,3.10
2017-03-03T06:22:20.313Z,3.18
2017-03-03T06:23:12.002Z,3.19
2017-03-03T06:24:17.074Z,3.26
2017-03-03T06:25:22.298Z,3.09
2017-03-03T06:26:13.898Z,3.06
2017-03-03T06:27:21.131Z,3.13
2017-03-03T06:28:17.159Z,2.96
2017-03-03T06:29:22.940Z,3.20
2017-03-03T06:30:12.739Z,3.25
2017-03-03T06:31:20.879Z,3.38
2017-03-03T06:32:14.349Z,3.26
2017-03-03T06:33:18.207Z,3.36
2017-03-03T06:34:11.430Z,3.42
2017-03-03T06:35:16.569Z,3.38
2017-03-03T06:36:21.588Z,3.38
2017-03-03T06:37:22.718Z,3.36
2017-03-03T06:38:17.546Z,3.54
2017-03-03T06:39:18.188Z,3.43
2017-03-03T06:40:14.480Z,3.55
2017-03-03T06:41:27.298Z,3.59
2017-03-03T06:42:21.715Z,3.55
2017-03-03T06:43:25.729Z,3.62
2017-03-03T06:44:16.852Z,3.59
2017-03-03T06:45:18.945Z,3.66
2017-03-03T06:46:19.566Z,3.65
2017-03-03T06:48:25.363Z,3.85
2017-03-03T06:49:12.018Z,3.81
2017-03-03T06:50:12.395Z,3.76
2017-03-03T06:51:19.002Z,3.56
2017-03-03T06:52:14.700Z,3.63
2017-03-03T06:53:20.408Z,3.61
2017-03-03T06:54:20.667Z,3.59
2017-03-03T06:55:19.442Z,3.61
2017-03-03T06:56:21.154Z,3.74
2017-03-03T06:57:18.161Z,3.64
2017-03-03T06:58:20.842Z,3.65
2017-03-03T07:00:19.770Z,3.82
2017-03-03T07:01:23.210Z,3.66
2017-03-03T07:02:20.095Z,3.62
2017-03-03T07:03:22.278Z,3.69
2017-03-03T07:04:20.894Z,3.98
2017-03-03T07:05:11.943Z,3.98
2017-03-03T07:06:12.058Z,3.90
2017-03-03T07:07:16.946Z,3.78
2017-03-03T07:08:23.114Z,3.75
2017-03-03T07:09:12.563Z,3.67
2017-03-03T07:10:20.952Z,3.43
2017-03-03T07:11:23.340Z,3.83
2017-03-03T07:12:28.218Z,3.96
2017-03-03T07:13:21.055Z,3.91
2017-03-03T07:15:17.556Z,4.12
2017-03-03T07:16:11.976Z,4.25
2017-03-03T07:17:24.602Z,4.12
2017-03-03T07:18:19.228Z,4.33
2017-03-03T07:19:19.293Z,4.31
2017-03-03T07:21:17.209Z,4.53
2017-03-03T07:22:24.868Z,4.71
2017-03-03T07:23:20.942Z,4.74
2017-03-03T07:24:20.999Z,4.74
2017-03-03T07:25:21.243Z,4.88
2017-03-03T07:26:21.119Z,4.97
2017-03-03T07:27:21.624Z,5.05
2017-03-03T07:29:21.643Z,4.94
2017-03-03T07:30:19.713Z,4.65
2017-03-03T07:31:22.350Z,4.63
2017-03-03T07:32:12.367Z,4.49
2017-03-03T07:33:27.730Z,4.59
2017-03-03T07:34:21.055Z,4.57
2017-03-03T07:35:17.660Z,4.65
2017-03-03T07:36:12.732Z,4.67
2017-03-03T07:37:25.770Z,4.59
2017-03-03T07:38:17.022Z,4.70
2017-03-03T07:39:10.343Z,4.59
2017-03-03T07:40:22.770Z,4.63
2017-03-03T07:41:20.982Z,4.58
2017-03-03T07:42:20.685Z,4.72
2017-03-03T07:43:25.793Z,4.72
2017-03-03T07:44:20.646Z,4.71
2017-03-03T07:45:26.387Z,4.70
2017-03-03T07:46:27.290Z,4.71
2017-03-03T07:47:20.707Z,4.83
2017-03-03T07:48:25.049Z,4.68
2017-03-03T07:49:22.844Z,4.89
2017-03-03T07:50:26.816Z,4.90
2017-03-03T07:51:20.070Z,4.93
2017-03-03T07:52:13.820Z,4.85
2017-03-03T07:53:20.233Z,4.95
2017-03-03T07:54:21.109Z,4.83
2017-03-03T07:55:19.704Z,4.71
2017-03-03T07:56:20.909Z,4.78
2017-03-03T07:57:21.123Z,4.79
2017-03-03T07:58:25.961Z,4.76
2017-03-03T07:59:21.084Z,4.88
2017-03-03T08:00:26.709Z,4.76
2017-03-03T08:01:21.621Z,4.70
2017-03-03T08:02:22.444Z,4.92
2017-03-03T08:03:13.273Z,5.00
2017-03-03T08:04:12.329Z,5.11
2017-03-03T08:05:21.572Z,5.10
2017-03-03T08:06:13.949Z,5.16
2017-03-03T08:07:22.261Z,5.21
2017-03-03T08:08:26.739Z,5.34
2017-03-03T08:09:13.940Z,5.22
2017-03-03T08:10:18.287Z,5.33
2017-03-03T08:11:21.427Z,5.33
2017-03-03T08:12:18.471Z,5.28
2017-03-03T08:13:21.072Z,5.32
2017-03-03T08:14:21.728Z,5.43
2017-03-03T08:15:25.639Z,5.27
2017-03-03T08:16:22.698Z,5.42
2017-03-03T08:17:16.852Z,5.42
2017-03-03T08:18:22.334Z,5.54
2017-03-03T08:19:22.467Z,5.63
2017-03-03T08:20:12.675Z,5.66
2017-03-03T08:21:23.422Z,5.64
2017-03-03T08:22:23.655Z,5.53
2017-03-03T08:23:26.467Z,5.60
2017-03-03T08:24:26.240Z,5.83
2017-03-03T08:25:10.127Z,5.86
2017-03-03T08:26:26.137Z,5.95
2017-03-03T08:27:17.212Z,5.83
2017-03-03T08:28:21.295Z,5.93
2017-03-03T08:29:21.416Z,6.02
2017-03-03T08:30:21.587Z,5.85
2017-03-03T08:31:16.753Z,5.98
2017-03-03T08:32:26.579Z,5.91
2017-03-03T08:33:16.768Z,6.09
2017-03-03T08:34:21.871Z,6.11
2017-03-03T08:35:21.181Z,6.18
2017-03-03T08:36:13.075Z,6.19
2017-03-03T08:37:20.134Z,5.98
2017-03-03T08:38:26.391Z,6.04
2017-03-03T08:39:20.277Z,6.01
2017-03-03T08:40:13.011Z,5.94
2017-03-03T08:41:20.851Z,6.11
2017-03-03T08:42:21.560Z,6.11
2017-03-03T08:43:14.610Z,6.25
2017-03-03T08:44:27.119Z,6.44
2017-03-03T08:45:26.947Z,6.42
2017-03-03T08:46:12.131Z,6.45
2017-03-03T08:47:21.216Z,6.57
2017-03-03T08:48:21.733Z,6.56
2017-03-03T08:49:17.321Z,6.54
2017-03-03T08:50:21.815Z,6.72
2017-03-03T08:51:18.509Z,6.78
2017-03-03T08:52:20.914Z,6.74
2017-03-03T08:53:21.072Z,6.76
2017-03-03T08:54:21.227Z,6.89
2017-03-03T08:55:21.186Z,7.02
2017-03-03T08:56:21.259Z,7.00
2017-03-03T08:57:21.974Z,7.00
2017-03-03T08:58:22.174Z,7.14
2017-03-03T08:59:23.355Z,7.20
2017-03-03T09:00:25.559Z,7.34
2017-03-03T09:01:20.624Z,7.31
2017-03-03T09:02:11.686Z,7.39
2017-03-03T09:03:26.862Z,7.30
2017-03-03T09:04:18.435Z,7.38
2017-03-03T09:05:12.644Z,7.38
2017-03-03T09:06:22.636Z,7.45
2017-03-03T09:07:21.733Z,7.45
2017-03-03T09:08:21.351Z,7.23
2017-03-03T09:09:19.049Z,7.11
2017-03-03T09:10:26.722Z,7.16
2017-03-03T09:11:20.657Z,7.15
2017-03-03T09:12:20.723Z,7.23
2017-03-03T09:13:27.087Z,7.31
2017-03-03T09:14:26.121Z,7.23
2017-03-03T09:15:21.563Z,7.21
2017-03-03T09:16:26.342Z,7.32
2017-03-03T09:17:21.595Z,7.39
2017-03-03T09:18:10.057Z,7.39
2017-03-03T09:19:26.416Z,7.56
2017-03-03T09:20:18.966Z,7.55
2017-03-03T09:21:26.409Z,7.66
2017-03-03T09:22:21.507Z,7.66
2017-03-03T09:23:22.884Z,7.64
2017-03-03T09:24:26.101Z,7.79
2017-03-03T09:25:22.370Z,7.87
2017-03-03T09:26:22.294Z,7.82
2017-03-03T09:27:26.080Z,7.73
2017-03-03T09:28:20.652Z,7.74
2017-03-03T09:29:13.276Z,7.73
2017-03-03T09:30:21.426Z,7.81
2017-03-03T09:31:21.574Z,7.93
2017-03-03T09:32:22.912Z,7.88
2017-03-03T09:33:13.389Z,7.94
2017-03-03T09:34:12.489Z,7.99
2017-03-03T09:35:16.467Z,8.03
2017-03-03T09:36:13.867Z,8.13
2017-03-03T09:37:21.088Z,7.90
2017-03-03T09:38:20.948Z,7.89
2017-03-03T09:39:20.673Z,7.91
2017-03-03T09:40:20.874Z,8.10
2017-03-03T09:41:20.957Z,8.12
2017-03-03T09:42:20.776Z,8.13
2017-03-03T09:43:21.173Z,7.94
2017-03-03T09:44:27.122Z,7.80
2017-03-03T09:45:20.885Z,7.88
2017-03-03T09:46:26.721Z,7.95
2017-03-03T09:47:20.673Z,8.17
2017-03-03T09:48:17.782Z,8.20
2017-03-03T09:49:14.187Z,8.15
2017-03-03T09:50:27.963Z,8.06
2017-03-03T09:51:20.082Z,8.11
2017-03-03T09:52:24.439Z,8.27
2017-03-03T09:53:22.088Z,8.23
2017-03-03T09:54:20.123Z,8.02
2017-03-03T09:55:20.668Z,8.21
2017-03-03T09:56:22.369Z,8.30
2017-03-03T09:57:21.690Z,8.40
2017-03-03T09:58:20.742Z,8.41
2017-03-03T09:59:20.924Z,8.23
2017-03-03T10:00:21.272Z,8.48
2017-03-03T10:01:26.899Z,8.54
2017-03-03T10:02:20.980Z,8.53
2017-03-03T10:03:22.070Z,8.40
2017-03-03T10:04:16.482Z,8.53
2017-03-03T10:05:12.328Z,8.46
2017-03-03T10:06:16.920Z,8.64
2017-03-03T10:07:21.044Z,8.73
2017-03-03T10:08:21.564Z,8.61
2017-03-03T10:09:21.705Z,8.66
2017-03-03T10:10:12.529Z,8.58
2017-03-03T10:11:21.260Z,8.61
2017-03-03T10:12:21.390Z,8.63
2017-03-03T10:13:18.794Z,8.69
2017-03-03T10:14:19.819Z,8.81
2017-03-03T10:15:20.191Z,8.61
2017-03-03T10:16:21.326Z,8.52
2017-03-03T10:17:21.253Z,8.57
2017-03-03T10:18:21.522Z,8.57
2017-03-03T10:19:21.979Z,8.33
2017-03-03T10:20:26.317Z,8.44
2017-03-03T10:21:22.159Z,8.73
2017-03-03T10:22:11.583Z,8.87
2017-03-03T10:23:20.703Z,8.70
2017-03-03T10:24:20.910Z,8.70
2017-03-03T10:25:21.979Z,8.86
2017-03-03T10:26:21.799Z,8.98
2017-03-03T10:27:16.549Z,9.08
2017-03-03T10:28:13.247Z,9.13
2017-03-03T10:29:12.101Z,9.00
2017-03-03T10:30:20.645Z,8.85
2017-03-03T10:31:11.496Z,8.95
2017-03-03T10:32:27.136Z,9.12
2017-03-03T10:33:21.327Z,9.18
2017-03-03T10:34:20.428Z,9.25
2017-03-03T10:35:21.833Z,9.19
2017-03-03T10:36:20.689Z,9.11
2017-03-03T10:37:15.816Z,9.33
2017-03-03T10:38:20.903Z,9.25
2017-03-03T10:39:21.950Z,9.48
2017-03-03T10:40:26.356Z,9.33
2017-03-03T10:41:20.790Z,9.03
2017-03-03T10:42:21.884Z,9.27
2017-03-03T10:43:22.002Z,9.34
2017-03-03T10:44:21.445Z,9.09
2017-03-03T10:45:20.562Z,9.16
2017-03-03T10:46:21.869Z,9.39
2017-03-03T10:47:19.644Z,9.33
2017-03-03T10:48:26.396Z,9.38
2017-03-03T10:49:25.278Z,9.38
2017-03-03T10:50:22.245Z,9.44
2017-03-03T10:51:27.170Z,9.35
2017-03-03T10:52:20.632Z,9.32
2017-03-03T10:53:22.004Z,9.42
2017-03-03T10:54:19.705Z,9.50
2017-03-03T10:55:21.387Z,9.60
2017-03-03T10:56:13.460Z,9.48
2017-03-03T10:57:21.223Z,9.50
2017-03-03T10:58:19.318Z,9.37
2017-03-03T10:59:23.626Z,9.56
2017-03-03T11:00:21.947Z,9.54
2017-03-03T11:01:22.296Z,9.45
2017-03-03T11:02:21.359Z,9.48
2017-03-03T11:03:22.064Z,9.67
2017-03-03T11:04:20.098Z,9.62
2017-03-03T11:05:26.753Z,9.53
2017-03-03T11:06:21.330Z,9.43
2017-03-03T11:07:16.525Z,9.61
2017-03-03T11:08:14.609Z,9.64
2017-03-03T11:09:23.271Z,9.50
2017-03-03T11:10:16.540Z,9.57
2017-03-03T11:11:20.599Z,9.73
2017-03-03T11:12:16.748Z,9.47
2017-03-03T11:13:22.870Z,9.64
2017-03-03T11:14:21.973Z,9.64
2017-03-03T11:15:26.079Z,9.73
2017-03-03T11:16:16.971Z,9.66
2017-03-03T11:17:18.832Z,9.78
2017-03-03T11:18:21.276Z,9.78
2017-03-03T11:19:23.377Z,9.86
2017-03-03T11:20:26.465Z,10.10
2017-03-03T11:21:20.507Z,10.00
2017-03-03T11:22:16.957Z,10.13
2017-03-03T11:23:26.432Z,10.24
2017-03-03T11:24:34.817Z,10.34
2017-03-03T11:25:24.277Z,10.28
2017-03-03T11:26:27.217Z,10.38
2017-03-03T11:27:20.660Z,10.55
2017-03-03T11:28:21.735Z,10.54
2017-03-03T11:29:22.847Z,10.45
2017-03-03T11:30:14.003Z,10.02
2017-03-03T11:31:17.508Z,10.16
2017-03-03T11:32:20.674Z,10.31
2017-03-03T11:33:21.629Z,10.31
2017-03-03T11:34:20.679Z,10.23
2017-03-03T11:35:20.989Z,10.24
2017-03-03T11:36:20.046Z,9.98
2017-03-03T11:37:20.851Z,9.89
2017-03-03T11:38:20.725Z,9.90
2017-03-03T11:39:16.952Z,10.05
2017-03-03T11:40:18.523Z,10.12
2017-03-03T11:41:20.708Z,10.22
2017-03-03T11:42:21.057Z,10.25
2017-03-03T11:43:21.199Z,10.31
2017-03-03T11:44:26.413Z,10.49
2017-03-03T11:45:15.583Z,10.56
2017-03-03T11:46:12.580Z,10.54
2017-03-03T11:47:20.786Z,10.53
2017-03-03T11:48:25.681Z,10.71
2017-03-03T11:49:22.630Z,10.81
2017-03-03T11:50:21.770Z,10.90
2017-03-03T11:51:16.914Z,10.98
2017-03-03T11:52:16.778Z,11.02
2017-03-03T11:53:12.192Z,11.07
2017-03-03T11:54:22.190Z,10.92
2017-03-03T11:55:20.616Z,11.13
2017-03-03T11:56:22.688Z,11.17
2017-03-03T11:57:21.455Z,11.17
2017-03-03T11:58:10.456Z,11.26
2017-03-03T11:59:11.957Z,11.18
2017-03-03T12:00:26.235Z,10.92
2017-03-03T12:01:21.451Z,11.03
2017-03-03T12:02:21.344Z,11.06
2017-03-03T12:03:19.677Z,10.97
2017-03-03T12:04:21.749Z,10.89
2017-03-03T12:05:26.974Z,10.89
2017-03-03T12:06:22.610Z,11.06
2017-03-03T12:07:21.693Z,11.31
2017-03-03T12:08:12.354Z,11.36
2017-03-03T12:09:22.546Z,11.43
2017-03-03T12:10:21.712Z,11.31
2017-03-03T12:11:26.351Z,11.18
2017-03-03T12:12:17.639Z,11.23
2017-03-03T12:13:19.707Z,11.48
2017-03-03T12:14:18.277Z,11.64
2017-03-03T12:15:19.790Z,11.71
2017-03-03T12:16:26.690Z,11.44
2017-03-03T12:17:14.538Z,11.46
2017-03-03T12:18:20.784Z,11.42
2017-03-03T12:19:11.916Z,11.45
2017-03-03T12:20:22.337Z,11.47
2017-03-03T12:21:26.475Z,11.52
2017-03-03T12:22:25.886Z,11.46
2017-03-03T12:23:11.676Z,11.35
2017-03-03T12:24:23.220Z,11.26
2017-03-03T12:25:21.320Z,11.27
2017-03-03T12:26:12.445Z,11.20
2017-03-03T12:27:15.327Z,11.17
2017-03-03T12:28:14.199Z,11.09
2017-03-03T12:29:21.319Z,11.12
2017-03-03T12:30:22.819Z,11.05
2017-03-03T12:31:26.655Z,11.06
2017-03-03T12:32:23.436Z,11.02
2017-03-03T12:33:16.607Z,11.05
2017-03-03T12:34:21.316Z,11.01
2017-03-03T12:35:28.727Z,11.02
2017-03-03T12:36:20.855Z,11.02
2017-03-03T12:37:23.046Z,10.98
2017-03-03T12:38:20.718Z,10.87
2017-03-03T12:39:21.461Z,10.82
2017-03-03T12:40:22.127Z,10.88
2017-03-03T12:41:20.973Z,10.91
2017-03-03T12:42:21.124Z,10.94
2017-03-03T12:43:12.180Z,10.92
2017-03-03T12:44:19.984Z,10.92
2017-03-03T12:45:12.583Z,10.92
2017-03-03T12:46:21.694Z,10.88
2017-03-03T12:47:21.415Z,10.86
2017-03-03T12:48:26.294Z,10.88
2017-03-03T12:49:13.503Z,10.89
2017-03-03T12:50:13.165Z,10.89
2017-03-03T12:51:21.927Z,10.92
2017-03-03T12:52:15.658Z,10.94
2017-03-03T12:53:21.612Z,11.05
2017-03-03T12:54:20.890Z,11.07
2017-03-03T12:55:26.986Z,11.14
2017-03-03T12:56:22.399Z,11.23
2017-03-03T12:57:22.994Z,11.32
2017-03-03T12:59:20.786Z,11.42
2017-03-03T13:00:21.771Z,11.41
2017-03-03T13:01:19.588Z,11.37
2017-03-03T13:02:21.450Z,11.39
2017-03-03T13:03:13.174Z,11.43
2017-03-03T13:04:20.835Z,11.46
2017-03-03T13:05:21.046Z,11.48
2017-03-03T13:06:26.109Z,11.51
2017-03-03T13:07:25.724Z,11.52
2017-03-03T13:08:20.922Z,11.57
2017-03-03T13:09:19.513Z,11.63
2017-03-03T13:10:20.291Z,11.72
2017-03-03T13:11:26.520Z,11.75
2017-03-03T13:12:13.652Z,11.81
2017-03-03T13:13:27.099Z,11.94
2017-03-03T13:14:20.885Z,11.98
2017-03-03T13:15:13.949Z,12.01
2017-03-03T13:16:17.706Z,12.12
2017-03-03T13:17:21.103Z,12.11
2017-03-03T13:18:22.243Z,12.04
2017-03-03T13:19:16.047Z,12.07
2017-03-03T13:20:12.681Z,12.18
2017-03-03T13:21:20.862Z,12.27
2017-03-03T13:22:26.209Z,12.34
2017-03-03T13:23:25.811Z,12.38
2017-03-03T13:24:27.330Z,12.40